createdAt,value
2022-12-11T00:00:10.370Z,21.13
2022-12-11T00:02:37.279Z,21.13
2022-12-11T00:05:04.289Z,21.06
2022-12-11T00:07:31.210Z,21.06
2022-12-11T00:09:58.138Z,21.00
2022-12-11T00:12:25.176Z,21.00
2022-12-11T00:14:52.104Z,21.00
2022-12-11T00:17:19.005Z,20.94
2022-12-11T00:19:45.963Z,20.94
2022-12-11T00:22:12.935Z,20.88
2022-12-11T00:24:39.889Z,20.81
2022-12-11T00:27:06.826Z,20.81
2022-12-11T00:29:33.721Z,20.75
2022-12-11T00:32:00.672Z,20.69
2022-12-11T00:34:27.699Z,20.69
2022-12-11T00:36:54.649Z,20.63
2022-12-11T00:39:21.571Z,20.63
2022-12-11T00:41:48.531Z,20.63
2022-12-11T00:44:15.456Z,20.56
2022-12-11T00:46:42.355Z,20.56
2022-12-11T00:49:09.383Z,20.56
2022-12-11T00:51:36.313Z,20.50
2022-12-11T00:54:03.295Z,20.50
2022-12-11T00:56:30.235Z,20.50
2022-12-11T00:58:57.140Z,20.44
2022-12-11T01:01:24.103Z,20.44
2022-12-11T01:03:51.060Z,20.44
2022-12-11T01:06:18.020Z,20.38
2022-12-11T01:08:44.947Z,20.38
2022-12-11T01:11:11.868Z,20.31
2022-12-11T01:13:38.800Z,20.31
2022-12-11T01:16:05.739Z,20.31
2022-12-11T01:18:32.922Z,20.31
2022-12-11T01:20:59.862Z,20.31
2022-12-11T01:23:26.738Z,20.25
2022-12-11T01:25:53.649Z,20.25
2022-12-11T01:28:20.577Z,20.19
2022-12-11T01:30:47.603Z,20.19
2022-12-11T01:33:14.554Z,20.13
2022-12-11T01:35:43.402Z,20.13
2022-12-11T01:38:10.295Z,20.06
2022-12-11T01:40:37.202Z,20.06
2022-12-11T01:43:04.143Z,20.00
2022-12-11T01:45:31.054Z,20.00
2022-12-11T01:47:57.958Z,19.94
2022-12-11T01:50:24.894Z,19.94
2022-12-11T01:52:51.806Z,19.94
2022-12-11T01:55:18.728Z,19.88
2022-12-11T01:57:45.691Z,19.88
2022-12-11T02:00:12.596Z,19.88
2022-12-11T02:02:39.582Z,19.81
2022-12-11T02:05:06.560Z,19.81
2022-12-11T02:07:33.458Z,19.81
2022-12-11T02:10:00.431Z,19.81
2022-12-11T02:12:27.372Z,19.75
2022-12-11T02:14:54.284Z,19.75
2022-12-11T02:17:21.200Z,19.75
2022-12-11T02:19:48.130Z,19.69
2022-12-11T02:22:15.019Z,19.69
2022-12-11T02:24:41.912Z,19.69
2022-12-11T02:27:08.872Z,19.75
2022-12-11T02:29:35.791Z,19.69
2022-12-11T02:32:02.683Z,19.69
2022-12-11T02:34:29.630Z,19.63
2022-12-11T02:36:56.577Z,19.63
2022-12-11T02:39:23.473Z,19.56
2022-12-11T02:41:50.459Z,19.56
2022-12-11T02:44:17.366Z,19.50
2022-12-11T02:46:44.274Z,19.50
2022-12-11T02:49:11.198Z,19.50
2022-12-11T02:51:38.100Z,19.44
2022-12-11T02:54:05.020Z,19.44
2022-12-11T02:56:31.969Z,19.44
2022-12-11T02:58:58.961Z,19.44
2022-12-11T03:01:25.923Z,19.38
2022-12-11T03:03:52.881Z,19.38
2022-12-11T03:06:19.782Z,19.38
2022-12-11T03:08:46.727Z,19.38
2022-12-11T03:11:13.647Z,19.31
2022-12-11T03:13:40.586Z,19.31
2022-12-11T03:16:07.506Z,19.31
2022-12-11T03:18:34.526Z,19.31
2022-12-11T03:21:01.454Z,19.31
2022-12-11T03:23:28.364Z,19.31
2022-12-11T03:25:55.311Z,19.25
2022-12-11T03:28:22.219Z,19.25
2022-12-11T03:30:49.155Z,19.31
2022-12-11T03:33:16.117Z,19.31
2022-12-11T03:35:43.081Z,19.31
2022-12-11T03:38:10.039Z,19.31
2022-12-11T03:40:37.147Z,19.31
2022-12-11T03:43:04.042Z,19.25
2022-12-11T03:45:31.019Z,19.25
2022-12-11T03:47:57.933Z,19.25
2022-12-11T03:50:24.847Z,19.19
2022-12-11T03:52:51.798Z,19.19
2022-12-11T03:55:18.701Z,19.19
2022-12-11T03:57:45.637Z,19.13
2022-12-11T04:00:12.656Z,19.13
2022-12-11T04:02:39.545Z,19.13
2022-12-11T04:05:06.463Z,19.13
2022-12-11T04:07:33.412Z,19.06
2022-12-11T04:10:00.304Z,19.06
2022-12-11T04:12:27.230Z,19.06
2022-12-11T04:14:54.235Z,19.06
2022-12-11T04:17:21.160Z,19.06
2022-12-11T04:19:48.110Z,19.00
2022-12-11T04:22:15.111Z,19.00
2022-12-11T04:24:42.039Z,19.00
2022-12-11T04:27:08.947Z,19.06
2022-12-11T04:29:35.916Z,19.13
2022-12-11T04:32:02.833Z,19.06
2022-12-11T04:34:29.734Z,19.06
2022-12-11T04:36:56.820Z,19.00
2022-12-11T04:39:23.779Z,18.94
2022-12-11T04:41:50.687Z,18.94
2022-12-11T04:44:17.690Z,18.94
2022-12-11T04:46:44.650Z,18.88
2022-12-11T04:49:11.643Z,18.88
2022-12-11T04:51:38.556Z,19.81
2022-12-11T04:54:05.459Z,25.44
2022-12-11T04:56:32.391Z,29.69
2022-12-11T04:58:59.312Z,31.00
2022-12-11T05:01:26.238Z,31.31
2022-12-11T05:03:53.186Z,29.19
2022-12-11T05:06:20.106Z,25.19
2022-12-11T05:08:47.026Z,24.56
2022-12-11T05:11:13.977Z,28.56
2022-12-11T05:13:40.871Z,31.13
2022-12-11T05:16:07.849Z,32.06
2022-12-11T05:18:34.790Z,31.38
2022-12-11T05:21:01.734Z,27.75
2022-12-11T05:23:28.687Z,26.44
2022-12-11T05:25:55.605Z,29.63
2022-12-11T05:28:22.558Z,31.88
2022-12-11T05:30:49.457Z,32.75
2022-12-11T05:33:16.455Z,32.31
2022-12-11T05:35:43.368Z,29.00
2022-12-11T05:38:10.283Z,27.81
2022-12-11T05:40:37.204Z,30.63
2022-12-11T05:43:04.124Z,32.81
2022-12-11T05:45:31.039Z,33.50
2022-12-11T05:47:57.982Z,33.50
2022-12-11T05:50:24.883Z,31.13
2022-12-11T05:52:51.822Z,29.19
2022-12-11T05:55:18.733Z,30.56
2022-12-11T05:57:45.670Z,32.81
2022-12-11T06:00:12.603Z,33.88
2022-12-11T06:02:39.590Z,33.63
2022-12-11T06:05:06.569Z,32.75
2022-12-11T06:07:33.466Z,32.44
2022-12-11T06:10:00.393Z,33.13
2022-12-11T06:12:27.331Z,34.19
2022-12-11T06:14:54.235Z,34.44
2022-12-11T06:17:21.149Z,33.88
2022-12-11T06:19:48.082Z,33.69
2022-12-11T06:22:14.994Z,34.38
2022-12-11T06:24:41.918Z,34.81
2022-12-11T06:27:08.893Z,35.13
2022-12-11T06:29:35.811Z,35.31
2022-12-11T06:32:02.814Z,35.50
2022-12-11T06:34:29.857Z,35.69
2022-12-11T06:36:56.834Z,35.81
2022-12-11T06:39:23.756Z,36.00
2022-12-11T06:41:50.715Z,36.19
2022-12-11T06:44:17.635Z,36.38
2022-12-11T06:46:44.550Z,36.56
2022-12-11T06:49:11.467Z,36.69
2022-12-11T06:51:38.371Z,36.81
2022-12-11T06:54:05.281Z,36.81
2022-12-11T06:56:32.231Z,36.69
2022-12-11T06:59:04.195Z,36.75
2022-12-11T07:01:33.953Z,36.69
2022-12-11T07:04:00.907Z,36.63
2022-12-11T07:06:27.822Z,36.63
2022-12-11T07:08:54.724Z,36.69
2022-12-11T07:11:21.638Z,36.75
2022-12-11T07:13:48.557Z,36.81
2022-12-11T07:16:15.470Z,36.81
2022-12-11T07:18:42.415Z,36.69
2022-12-11T07:21:09.324Z,36.69
2022-12-11T07:23:36.233Z,36.69
2022-12-11T07:26:03.172Z,36.75
2022-12-11T07:28:30.095Z,36.75
2022-12-11T07:30:57.042Z,36.81
2022-12-11T07:33:23.975Z,36.94
2022-12-11T07:35:50.895Z,37.00
2022-12-11T07:38:17.817Z,36.81
2022-12-11T07:40:44.778Z,36.69
2022-12-11T07:43:11.711Z,36.63
2022-12-11T07:45:38.659Z,36.44
2022-12-11T07:48:05.620Z,36.25
2022-12-11T07:50:36.598Z,36.06
2022-12-11T07:53:06.684Z,35.88
2022-12-11T07:55:33.650Z,35.69
2022-12-11T07:58:00.574Z,35.75
2022-12-11T08:00:27.506Z,35.69
2022-12-11T08:02:54.474Z,35.31
2022-12-11T08:05:21.397Z,35.19
2022-12-11T08:07:48.400Z,35.44
2022-12-11T08:10:15.341Z,35.63
2022-12-11T08:12:42.250Z,35.75
2022-12-11T08:15:09.407Z,35.88
2022-12-11T08:17:39.976Z,36.00
2022-12-11T08:20:07.275Z,36.13
2022-12-11T08:22:34.227Z,36.25
2022-12-11T08:25:01.148Z,36.31
2022-12-11T08:27:28.063Z,36.44
2022-12-11T08:29:55.002Z,36.50
2022-12-11T08:32:21.905Z,36.56
2022-12-11T08:34:48.838Z,36.69
2022-12-11T08:37:15.767Z,36.75
2022-12-11T08:39:42.680Z,36.81
2022-12-11T08:42:09.624Z,36.94
2022-12-11T08:44:36.550Z,37.00
2022-12-11T08:47:03.490Z,37.06
2022-12-11T08:49:34.420Z,37.13
2022-12-11T08:52:01.746Z,37.25
2022-12-11T08:54:28.668Z,37.31
2022-12-11T08:56:58.190Z,37.38
2022-12-11T08:59:25.315Z,37.38
2022-12-11T09:01:52.317Z,37.38
2022-12-11T09:04:19.365Z,37.25
2022-12-11T09:06:46.297Z,37.13
2022-12-11T09:09:13.207Z,37.06
2022-12-11T09:11:40.136Z,37.06
2022-12-11T09:14:08.107Z,37.06
2022-12-11T09:16:35.273Z,37.13
2022-12-11T09:19:02.198Z,37.13
2022-12-11T09:21:29.112Z,37.13
2022-12-11T09:23:56.001Z,37.13
2022-12-11T09:26:22.940Z,37.19
2022-12-11T09:28:49.861Z,37.25
2022-12-11T09:31:16.919Z,37.25
2022-12-11T09:33:44.022Z,37.25
2022-12-11T09:36:11.012Z,37.19
2022-12-11T09:38:37.946Z,37.19
2022-12-11T09:41:04.849Z,37.19
2022-12-11T09:43:31.761Z,37.13
2022-12-11T09:45:58.807Z,37.19
2022-12-11T09:48:25.784Z,37.19
2022-12-11T09:50:52.750Z,37.19
2022-12-11T09:53:19.687Z,37.00
2022-12-11T09:55:46.602Z,36.88
2022-12-11T09:58:13.551Z,36.69
2022-12-11T10:00:40.460Z,36.50
2022-12-11T10:03:07.442Z,36.31
2022-12-11T10:05:34.356Z,36.13
2022-12-11T10:08:01.395Z,35.69
2022-12-11T10:10:28.455Z,35.06
2022-12-11T10:12:55.385Z,35.25
2022-12-11T10:15:22.282Z,35.50
2022-12-11T10:17:49.253Z,35.63
2022-12-11T10:20:16.170Z,35.69
2022-12-11T10:22:43.091Z,35.75
2022-12-11T10:25:11.837Z,35.88
2022-12-11T10:27:39.426Z,35.94
2022-12-11T10:30:06.341Z,36.00
2022-12-11T10:32:33.271Z,36.06
2022-12-11T10:35:00.213Z,36.06
2022-12-11T10:37:27.118Z,36.13
2022-12-11T10:39:54.052Z,36.19
2022-12-11T10:42:21.003Z,36.31
2022-12-11T10:44:47.932Z,36.38
2022-12-11T10:47:14.850Z,36.44
2022-12-11T10:49:41.790Z,36.50
2022-12-11T10:52:08.679Z,36.56
2022-12-11T10:54:35.587Z,36.63
2022-12-11T10:57:02.534Z,36.63
2022-12-11T10:59:29.450Z,36.69
2022-12-11T11:01:56.406Z,36.75
2022-12-11T11:04:23.380Z,36.81
2022-12-11T11:06:50.296Z,36.94
2022-12-11T11:09:17.221Z,36.94
2022-12-11T11:11:44.197Z,36.88
2022-12-11T11:14:11.108Z,36.75
2022-12-11T11:16:38.046Z,36.63
2022-12-11T11:19:05.010Z,36.50
2022-12-11T11:21:31.957Z,36.31
2022-12-11T11:23:58.852Z,36.19
2022-12-11T11:26:38.298Z,36.00
2022-12-11T11:29:12.707Z,35.94
2022-12-11T11:31:39.689Z,35.94
2022-12-11T11:34:06.645Z,35.88
2022-12-11T11:36:33.573Z,35.81
2022-12-11T11:39:00.479Z,35.81
2022-12-11T11:41:27.403Z,35.81
2022-12-11T11:43:54.347Z,35.81
2022-12-11T11:46:21.351Z,35.81
2022-12-11T11:48:48.341Z,35.81
2022-12-11T11:51:15.267Z,35.75
2022-12-11T11:53:42.186Z,35.75
2022-12-11T11:56:09.174Z,35.81
2022-12-11T11:58:36.085Z,35.81
2022-12-11T12:01:03.156Z,35.88
2022-12-11T12:03:30.150Z,35.94
2022-12-11T12:05:57.077Z,36.00
2022-12-11T12:08:24.059Z,36.06
2022-12-11T12:10:51.025Z,36.06
2022-12-11T12:13:44.770Z,36.13
2022-12-11T12:16:17.685Z,36.25
2022-12-11T12:18:51.787Z,36.31
2022-12-11T12:21:18.751Z,36.38
2022-12-11T12:23:45.666Z,36.38
2022-12-11T12:26:12.568Z,36.44
2022-12-11T12:28:39.536Z,36.44
2022-12-11T12:31:06.511Z,36.50
2022-12-11T12:33:33.515Z,36.56
2022-12-11T12:36:06.411Z,36.63
2022-12-11T12:38:33.879Z,36.69
2022-12-11T12:41:00.790Z,36.75
2022-12-11T12:43:27.690Z,36.75
2022-12-11T12:45:54.614Z,36.81
2022-12-11T12:48:21.634Z,36.88
2022-12-11T12:50:48.575Z,36.94
2022-12-11T12:53:15.509Z,37.00
2022-12-11T12:55:42.438Z,37.06
2022-12-11T12:58:09.342Z,37.19
2022-12-11T13:00:36.313Z,37.19
2022-12-11T13:03:03.237Z,37.19
2022-12-11T13:05:30.150Z,37.13
2022-12-11T13:07:57.166Z,37.00
2022-12-11T13:10:24.127Z,36.81
2022-12-11T13:12:51.045Z,36.69
2022-12-11T13:15:17.966Z,36.56
2022-12-11T13:17:44.873Z,36.38
2022-12-11T13:20:11.827Z,36.19
2022-12-11T13:22:38.786Z,36.06
2022-12-11T13:25:05.688Z,36.00
2022-12-11T13:27:32.592Z,35.94
2022-12-11T13:29:59.550Z,35.94
2022-12-11T13:32:26.467Z,35.94
2022-12-11T13:34:53.366Z,35.94
2022-12-11T13:37:20.312Z,36.00
2022-12-11T13:39:47.244Z,36.06
2022-12-11T13:42:17.470Z,36.06
2022-12-11T13:44:44.549Z,36.06
2022-12-11T13:47:11.480Z,36.06
2022-12-11T13:49:38.435Z,36.13
2022-12-11T13:52:05.380Z,36.19
2022-12-11T13:54:32.299Z,36.19
2022-12-11T13:56:59.209Z,36.25
2022-12-11T13:59:26.130Z,36.19
2022-12-11T14:01:53.188Z,36.13
2022-12-11T14:04:20.146Z,35.94
2022-12-11T14:06:47.101Z,35.81
2022-12-11T14:09:14.018Z,35.75
2022-12-11T14:11:40.934Z,35.75
2022-12-11T14:14:07.903Z,35.75
2022-12-11T14:16:34.829Z,35.50
2022-12-11T14:19:01.769Z,35.25
2022-12-11T14:21:28.694Z,35.50
2022-12-11T14:23:55.583Z,35.63
2022-12-11T14:26:22.487Z,35.69
2022-12-11T14:28:49.433Z,35.75
2022-12-11T14:31:16.432Z,35.81
2022-12-11T14:33:43.384Z,35.94
2022-12-11T14:36:10.316Z,36.00
2022-12-11T14:38:37.258Z,36.13
2022-12-11T14:41:04.165Z,36.19
2022-12-11T14:43:31.107Z,36.25
2022-12-11T14:45:58.061Z,36.31
2022-12-11T14:48:25.074Z,36.38
2022-12-11T14:50:52.021Z,36.44
2022-12-11T14:53:18.951Z,36.50
2022-12-11T14:55:45.911Z,36.56
2022-12-11T14:58:12.929Z,36.63
2022-12-11T15:00:39.863Z,36.69
2022-12-11T15:03:06.826Z,36.81
2022-12-11T15:05:40.282Z,36.88
2022-12-11T15:08:07.902Z,36.94
2022-12-11T15:10:34.847Z,37.00
2022-12-11T15:13:01.762Z,37.06
2022-12-11T15:15:28.727Z,37.13
2022-12-11T15:17:55.659Z,37.19
2022-12-11T15:20:22.589Z,37.25
2022-12-11T15:22:49.527Z,37.31
2022-12-11T15:25:16.445Z,37.25
2022-12-11T15:27:43.354Z,37.25
2022-12-11T15:30:10.553Z,37.25
2022-12-11T15:32:37.732Z,37.19
2022-12-11T15:35:04.640Z,37.00
2022-12-11T15:37:31.612Z,36.88
2022-12-11T15:39:58.518Z,36.69
2022-12-11T15:42:25.436Z,36.56
2022-12-11T15:44:52.401Z,36.38
2022-12-11T15:47:19.320Z,36.13
2022-12-11T15:49:46.259Z,35.44
2022-12-11T15:52:13.170Z,35.25
2022-12-11T15:54:40.113Z,35.50
2022-12-11T15:57:07.010Z,35.69
2022-12-11T15:59:34.023Z,35.81
2022-12-11T16:02:00.950Z,35.94
2022-12-11T16:04:27.883Z,36.00
2022-12-11T16:06:54.797Z,36.13
2022-12-11T16:09:21.711Z,36.19
2022-12-11T16:11:48.718Z,36.25
2022-12-11T16:14:15.635Z,36.31
2022-12-11T16:16:42.562Z,36.38
2022-12-11T16:19:09.485Z,36.44
2022-12-11T16:21:36.427Z,36.50
2022-12-11T16:24:03.317Z,36.56
2022-12-11T16:26:30.233Z,36.63
2022-12-11T16:28:57.166Z,36.63
2022-12-11T16:31:24.142Z,36.75
2022-12-11T16:33:51.081Z,36.81
2022-12-11T16:36:18.279Z,36.75
2022-12-11T16:38:49.784Z,36.63
2022-12-11T16:41:20.016Z,36.50
2022-12-11T16:43:46.951Z,36.31
2022-12-11T16:46:13.903Z,36.19
2022-12-11T16:48:40.898Z,36.00
2022-12-11T16:51:07.801Z,35.94
2022-12-11T16:53:34.710Z,35.63
2022-12-11T16:56:01.651Z,35.56
2022-12-11T16:58:28.634Z,35.69
2022-12-11T17:00:55.539Z,35.81
2022-12-11T17:03:22.532Z,35.88
2022-12-11T17:05:49.436Z,36.00
2022-12-11T17:08:16.376Z,36.06
2022-12-11T17:10:43.407Z,36.19
2022-12-11T17:13:10.315Z,36.25
2022-12-11T17:15:37.286Z,36.31
2022-12-11T17:18:04.234Z,36.38
2022-12-11T17:20:31.156Z,36.44
2022-12-11T17:22:58.090Z,36.50
2022-12-11T17:25:25.013Z,36.56
2022-12-11T17:27:51.917Z,36.63
2022-12-11T17:30:18.836Z,36.63
2022-12-11T17:32:45.734Z,36.69
2022-12-11T17:35:12.839Z,36.75
2022-12-11T17:37:40.051Z,36.88
2022-12-11T17:40:06.973Z,36.94
2022-12-11T17:42:33.938Z,37.00
2022-12-11T17:45:00.845Z,37.00
2022-12-11T17:47:27.762Z,37.06
2022-12-11T17:49:54.714Z,37.13
2022-12-11T17:52:21.642Z,37.19
2022-12-11T17:54:48.572Z,37.25
2022-12-11T17:57:15.521Z,37.25
2022-12-11T17:59:42.423Z,37.31
2022-12-11T18:02:09.346Z,37.38
2022-12-11T18:04:36.315Z,37.44
2022-12-11T18:07:03.289Z,37.38
2022-12-11T18:09:30.182Z,37.31
2022-12-11T18:11:57.115Z,37.19
2022-12-11T18:14:24.018Z,37.06
2022-12-11T18:16:50.918Z,36.88
2022-12-11T18:19:17.837Z,36.69
2022-12-11T18:21:44.748Z,36.56
2022-12-11T18:24:11.655Z,36.38
2022-12-11T18:26:38.610Z,35.94
2022-12-11T18:29:05.511Z,35.50
2022-12-11T18:31:34.429Z,35.69
2022-12-11T18:34:03.511Z,35.88
2022-12-11T18:36:30.431Z,35.94
2022-12-11T18:38:57.435Z,36.00
2022-12-11T18:41:24.346Z,36.13
2022-12-11T18:43:51.333Z,36.19
2022-12-11T18:46:18.412Z,36.19
2022-12-11T18:48:45.345Z,36.31
2022-12-11T18:51:12.289Z,36.31
2022-12-11T18:53:39.225Z,36.38
2022-12-11T18:56:06.145Z,36.44
2022-12-11T18:58:33.070Z,36.50
2022-12-11T19:01:00.015Z,36.56
2022-12-11T19:03:26.939Z,36.56
2022-12-11T19:05:53.908Z,36.50
2022-12-11T19:08:20.868Z,36.31
2022-12-11T19:10:47.813Z,36.25
2022-12-11T19:13:14.755Z,36.13
2022-12-11T19:15:41.677Z,36.06
2022-12-11T19:18:08.585Z,36.00
2022-12-11T19:20:57.714Z,36.00
2022-12-11T19:23:22.430Z,35.88
2022-12-11T19:25:49.423Z,35.38
2022-12-11T19:28:16.348Z,35.50
2022-12-11T19:30:43.269Z,35.81
2022-12-11T19:33:10.219Z,36.00
2022-12-11T19:35:37.141Z,36.13
2022-12-11T19:38:04.052Z,36.31
2022-12-11T19:40:30.979Z,36.44
2022-12-11T19:42:57.893Z,36.56
2022-12-11T19:45:24.798Z,36.69
2022-12-11T19:47:51.765Z,36.81
2022-12-11T19:50:18.690Z,36.88
2022-12-11T19:52:46.552Z,37.00
2022-12-11T19:55:13.863Z,37.06
2022-12-11T19:57:40.882Z,37.19
2022-12-11T20:00:07.805Z,37.25
2022-12-11T20:02:34.715Z,37.31
2022-12-11T20:05:01.629Z,37.13
2022-12-11T20:07:30.762Z,36.88
2022-12-11T20:09:57.866Z,36.56
2022-12-11T20:12:24.781Z,36.25
2022-12-11T20:14:51.707Z,35.94
2022-12-11T20:17:18.689Z,35.63
2022-12-11T20:19:45.639Z,35.31
2022-12-11T20:22:12.530Z,34.94
2022-12-11T20:24:39.467Z,34.63
2022-12-11T20:27:06.442Z,34.25
2022-12-11T20:29:33.347Z,33.94
2022-12-11T20:32:00.398Z,33.56
2022-12-11T20:34:27.454Z,33.25
2022-12-11T20:36:54.347Z,32.94
2022-12-11T20:39:21.271Z,32.63
2022-12-11T20:41:48.214Z,32.38
2022-12-11T20:44:15.121Z,32.06
2022-12-11T20:46:42.013Z,31.81
2022-12-11T20:49:08.995Z,31.56
2022-12-11T20:51:35.942Z,31.25
2022-12-11T20:54:02.886Z,31.00
2022-12-11T20:56:29.871Z,30.69
2022-12-11T20:58:56.809Z,30.44
2022-12-11T21:01:23.798Z,29.81
2022-12-11T21:03:50.731Z,28.13
2022-12-11T21:06:17.653Z,27.25
2022-12-11T21:08:44.550Z,26.75
2022-12-11T21:11:11.521Z,26.44
2022-12-11T21:13:38.462Z,26.19
2022-12-11T21:16:05.462Z,26.06
2022-12-11T21:18:32.422Z,25.94
2022-12-11T21:20:59.356Z,25.81
2022-12-11T21:23:26.266Z,25.69
2022-12-11T21:25:53.190Z,25.63
2022-12-11T21:28:20.150Z,25.50
2022-12-11T21:30:47.059Z,25.38
2022-12-11T21:33:13.984Z,25.31
2022-12-11T21:35:40.974Z,25.19
2022-12-11T21:38:07.881Z,25.13
2022-12-11T21:40:34.793Z,25.00
2022-12-11T21:43:01.701Z,24.94
2022-12-11T21:45:59.744Z,24.81
2022-12-11T21:48:15.525Z,24.75
2022-12-11T21:50:42.551Z,24.63
2022-12-11T21:53:09.447Z,24.56
2022-12-11T21:55:36.379Z,24.44
2022-12-11T21:58:03.299Z,24.38
2022-12-11T22:00:30.199Z,24.31
2022-12-11T22:02:57.117Z,24.25
2022-12-11T22:05:24.019Z,24.13
2022-12-11T22:07:50.996Z,23.75
2022-12-11T22:10:18.042Z,23.44
2022-12-11T22:12:44.943Z,23.19
2022-12-11T22:15:12.106Z,23.06
2022-12-11T22:17:39.150Z,22.94
2022-12-11T22:20:06.060Z,22.88
2022-12-11T22:22:33.007Z,22.81
2022-12-11T22:24:59.909Z,22.69
2022-12-11T22:27:26.824Z,22.69
2022-12-11T22:29:53.761Z,22.56
2022-12-11T22:32:20.654Z,22.50
2022-12-11T22:34:47.565Z,22.44
2022-12-11T22:37:14.478Z,22.44
2022-12-11T22:39:41.401Z,22.38
2022-12-11T22:42:08.353Z,22.31
2022-12-11T22:44:35.359Z,22.25
2022-12-11T22:47:02.271Z,22.19
2022-12-11T22:49:29.203Z,22.19
2022-12-11T22:51:56.153Z,22.13
2022-12-11T22:54:23.069Z,22.06
2022-12-11T22:56:49.986Z,22.00
2022-12-11T22:59:16.911Z,21.94
2022-12-11T23:01:43.838Z,21.94
2022-12-11T23:04:10.743Z,21.88
2022-12-11T23:06:37.694Z,21.81
2022-12-11T23:09:04.601Z,21.75
2022-12-11T23:11:31.541Z,21.69
2022-12-11T23:13:58.477Z,21.56
2022-12-11T23:16:25.436Z,21.50
2022-12-11T23:18:52.353Z,21.44
2022-12-11T23:21:19.314Z,21.31
2022-12-11T23:23:46.208Z,21.31
2022-12-11T23:26:13.129Z,21.25
2022-12-11T23:28:40.059Z,21.19
2022-12-11T23:31:07.057Z,21.19
2022-12-11T23:33:34.076Z,21.13
2022-12-11T23:36:00.989Z,21.06
2022-12-11T23:38:27.922Z,21.00
2022-12-11T23:40:54.829Z,21.00
2022-12-11T23:43:21.763Z,20.94
2022-12-11T23:45:48.768Z,20.88
2022-12-11T23:48:15.720Z,20.88
2022-12-11T23:50:42.689Z,20.81
2022-12-11T23:53:09.607Z,20.81
2022-12-11T23:55:36.524Z,20.75
2022-12-11T23:58:03.444Z,20.75
